sensor_id;sensor_type;location;lat;lon;timestamp;temperature;humidity
53878;DHT22;39790;53.144;6.424;2022-07-31T00:00:30;20.10;85.80
53878;DHT22;39790;53.144;6.424;2022-07-31T00:02:57;20.20;86.00
53878;DHT22;39790;53.144;6.424;2022-07-31T00:05:25;20.10;86.10
53878;DHT22;39790;53.144;6.424;2022-07-31T00:07:52;20.10;86.40
53878;DHT22;39790;53.144;6.424;2022-07-31T00:10:18;20.10;87.10
53878;DHT22;39790;53.144;6.424;2022-07-31T00:12:44;20.10;86.60
53878;DHT22;39790;53.144;6.424;2022-07-31T00:15:10;20.10;86.70
53878;DHT22;39790;53.144;6.424;2022-07-31T00:17:38;20.10;86.90
53878;DHT22;39790;53.144;6.424;2022-07-31T00:20:04;20.10;86.90
53878;DHT22;39790;53.144;6.424;2022-07-31T00:22:31;20.10;87.10
53878;DHT22;39790;53.144;6.424;2022-07-31T00:24:56;20.00;87.20
53878;DHT22;39790;53.144;6.424;2022-07-31T00:27:22;20.00;87.40
53878;DHT22;39790;53.144;6.424;2022-07-31T00:29:48;20.00;87.60
53878;DHT22;39790;53.144;6.424;2022-07-31T00:32:14;19.90;87.50
53878;DHT22;39790;53.144;6.424;2022-07-31T00:34:40;20.00;87.70
53878;DHT22;39790;53.144;6.424;2022-07-31T00:37:07;19.90;88.30
53878;DHT22;39790;53.144;6.424;2022-07-31T00:39:32;20.00;87.70
53878;DHT22;39790;53.144;6.424;2022-07-31T00:41:58;20.00;87.70
53878;DHT22;39790;53.144;6.424;2022-07-31T00:44:23;20.00;87.80
53878;DHT22;39790;53.144;6.424;2022-07-31T00:46:49;19.90;88.00
53878;DHT22;39790;53.144;6.424;2022-07-31T00:49:15;19.80;88.20
53878;DHT22;39790;53.144;6.424;2022-07-31T00:51:40;19.70;88.30
53878;DHT22;39790;53.144;6.424;2022-07-31T00:54:09;19.70;88.50
53878;DHT22;39790;53.144;6.424;2022-07-31T00:56:35;19.70;88.70
53878;DHT22;39790;53.144;6.424;2022-07-31T00:59:02;19.70;88.80
53878;DHT22;39790;53.144;6.424;2022-07-31T01:01:28;19.70;88.90
53878;DHT22;39790;53.144;6.424;2022-07-31T01:03:55;19.70;89.00
53878;DHT22;39790;53.144;6.424;2022-07-31T01:06:20;19.70;89.10
53878;DHT22;39790;53.144;6.424;2022-07-31T01:08:46;19.60;89.20
53878;DHT22;39790;53.144;6.424;2022-07-31T01:11:22;19.60;89.40
53878;DHT22;39790;53.144;6.424;2022-07-31T01:13:55;19.60;89.50
53878;DHT22;39790;53.144;6.424;2022-07-31T01:16:28;19.60;90.10
53878;DHT22;39790;53.144;6.424;2022-07-31T01:18:56;19.60;89.80
53878;DHT22;39790;53.144;6.424;2022-07-31T01:21:31;19.50;89.60
53878;DHT22;39790;53.144;6.424;2022-07-31T01:26:40;19.60;89.70
53878;DHT22;39790;53.144;6.424;2022-07-31T01:29:27;19.60;89.80
53878;DHT22;39790;53.144;6.424;2022-07-31T01:32:05;19.60;89.80
53878;DHT22;39790;53.144;6.424;2022-07-31T01:34:56;19.50;90.10
53878;DHT22;39790;53.144;6.424;2022-07-31T01:37:30;19.50;90.00
53878;DHT22;39790;53.144;6.424;2022-07-31T01:40:13;19.50;90.00
53878;DHT22;39790;53.144;6.424;2022-07-31T01:42:42;19.40;90.00
53878;DHT22;39790;53.144;6.424;2022-07-31T01:45:09;19.40;90.10
53878;DHT22;39790;53.144;6.424;2022-07-31T01:47:39;19.40;90.20
53878;DHT22;39790;53.144;6.424;2022-07-31T01:50:06;19.40;90.20
53878;DHT22;39790;53.144;6.424;2022-07-31T01:52:33;19.50;90.20
53878;DHT22;39790;53.144;6.424;2022-07-31T01:55:01;19.50;90.20
53878;DHT22;39790;53.144;6.424;2022-07-31T01:57:29;19.30;90.30
53878;DHT22;39790;53.144;6.424;2022-07-31T02:00:03;19.30;90.40
53878;DHT22;39790;53.144;6.424;2022-07-31T02:02:29;19.20;90.60
53878;DHT22;39790;53.144;6.424;2022-07-31T02:04:56;19.20;90.60
53878;DHT22;39790;53.144;6.424;2022-07-31T02:07:22;19.20;90.60
53878;DHT22;39790;53.144;6.424;2022-07-31T02:09:49;19.30;90.60
53878;DHT22;39790;53.144;6.424;2022-07-31T02:12:17;19.20;90.60
53878;DHT22;39790;53.144;6.424;2022-07-31T02:14:44;19.30;90.60
53878;DHT22;39790;53.144;6.424;2022-07-31T02:17:11;19.30;90.60
53878;DHT22;39790;53.144;6.424;2022-07-31T02:19:38;19.30;90.60
53878;DHT22;39790;53.144;6.424;2022-07-31T02:22:04;19.30;90.60
53878;DHT22;39790;53.144;6.424;2022-07-31T02:24:31;19.30;90.60
53878;DHT22;39790;53.144;6.424;2022-07-31T02:26:57;19.30;90.50
53878;DHT22;39790;53.144;6.424;2022-07-31T02:29:23;19.30;90.50
53878;DHT22;39790;53.144;6.424;2022-07-31T02:31:50;19.30;90.40
53878;DHT22;39790;53.144;6.424;2022-07-31T02:34:21;19.30;90.50
53878;DHT22;39790;53.144;6.424;2022-07-31T02:36:47;19.30;90.50
53878;DHT22;39790;53.144;6.424;2022-07-31T02:39:13;19.30;90.60
53878;DHT22;39790;53.144;6.424;2022-07-31T02:41:39;19.30;90.40
53878;DHT22;39790;53.144;6.424;2022-07-31T02:44:06;19.30;90.40
53878;DHT22;39790;53.144;6.424;2022-07-31T02:46:33;19.20;90.40
53878;DHT22;39790;53.144;6.424;2022-07-31T02:48:59;19.20;90.60
53878;DHT22;39790;53.144;6.424;2022-07-31T02:51:24;19.10;90.60
53878;DHT22;39790;53.144;6.424;2022-07-31T02:53:50;19.10;90.60
53878;DHT22;39790;53.144;6.424;2022-07-31T02:56:16;19.10;90.70
53878;DHT22;39790;53.144;6.424;2022-07-31T02:58:42;19.20;90.70
53878;DHT22;39790;53.144;6.424;2022-07-31T03:01:08;19.10;90.80
53878;DHT22;39790;53.144;6.424;2022-07-31T03:03:34;19.10;90.80
53878;DHT22;39790;53.144;6.424;2022-07-31T03:05:59;19.10;90.90
53878;DHT22;39790;53.144;6.424;2022-07-31T03:08:26;19.10;90.90
53878;DHT22;39790;53.144;6.424;2022-07-31T03:10:52;19.10;90.90
53878;DHT22;39790;53.144;6.424;2022-07-31T03:13:19;19.10;90.90
53878;DHT22;39790;53.144;6.424;2022-07-31T03:15:45;19.10;91.00
53878;DHT22;39790;53.144;6.424;2022-07-31T03:18:13;19.20;90.90
53878;DHT22;39790;53.144;6.424;2022-07-31T03:20:41;19.10;90.90
53878;DHT22;39790;53.144;6.424;2022-07-31T03:23:09;19.10;90.80
53878;DHT22;39790;53.144;6.424;2022-07-31T03:25:38;19.10;90.80
53878;DHT22;39790;53.144;6.424;2022-07-31T03:28:04;19.10;90.80
53878;DHT22;39790;53.144;6.424;2022-07-31T03:30:30;19.10;90.80
53878;DHT22;39790;53.144;6.424;2022-07-31T03:32:56;19.10;90.80
53878;DHT22;39790;53.144;6.424;2022-07-31T03:35:22;19.10;90.70
53878;DHT22;39790;53.144;6.424;2022-07-31T03:37:49;19.10;90.70
53878;DHT22;39790;53.144;6.424;2022-07-31T03:40:14;19.10;90.60
53878;DHT22;39790;53.144;6.424;2022-07-31T03:42:40;19.20;90.60
53878;DHT22;39790;53.144;6.424;2022-07-31T03:45:08;19.20;90.50
53878;DHT22;39790;53.144;6.424;2022-07-31T03:47:35;19.20;90.40
53878;DHT22;39790;53.144;6.424;2022-07-31T03:50:01;19.30;90.50
53878;DHT22;39790;53.144;6.424;2022-07-31T03:52:27;19.30;90.40
53878;DHT22;39790;53.144;6.424;2022-07-31T03:54:53;19.30;90.30
53878;DHT22;39790;53.144;6.424;2022-07-31T03:57:20;19.30;90.30
53878;DHT22;39790;53.144;6.424;2022-07-31T03:59:47;19.40;90.30
53878;DHT22;39790;53.144;6.424;2022-07-31T04:02:15;19.40;90.20
53878;DHT22;39790;53.144;6.424;2022-07-31T04:04:42;19.40;90.20
53878;DHT22;39790;53.144;6.424;2022-07-31T04:07:08;19.50;90.20
53878;DHT22;39790;53.144;6.424;2022-07-31T04:09:33;19.50;90.20
53878;DHT22;39790;53.144;6.424;2022-07-31T04:11:59;19.50;90.20
53878;DHT22;39790;53.144;6.424;2022-07-31T04:14:25;19.50;90.20
53878;DHT22;39790;53.144;6.424;2022-07-31T04:16:50;19.50;90.20
53878;DHT22;39790;53.144;6.424;2022-07-31T04:19:16;19.50;90.30
53878;DHT22;39790;53.144;6.424;2022-07-31T04:21:41;19.50;90.40
53878;DHT22;39790;53.144;6.424;2022-07-31T04:24:07;19.40;90.50
53878;DHT22;39790;53.144;6.424;2022-07-31T04:26:33;19.40;90.60
53878;DHT22;39790;53.144;6.424;2022-07-31T04:28:58;19.40;90.70
53878;DHT22;39790;53.144;6.424;2022-07-31T04:31:24;19.40;90.70
53878;DHT22;39790;53.144;6.424;2022-07-31T04:33:50;19.30;90.90
53878;DHT22;39790;53.144;6.424;2022-07-31T04:36:15;19.30;91.00
53878;DHT22;39790;53.144;6.424;2022-07-31T04:38:42;19.30;91.40
53878;DHT22;39790;53.144;6.424;2022-07-31T04:41:07;19.20;91.20
53878;DHT22;39790;53.144;6.424;2022-07-31T04:43:33;19.20;91.30
53878;DHT22;39790;53.144;6.424;2022-07-31T04:45:59;19.10;91.40
53878;DHT22;39790;53.144;6.424;2022-07-31T04:48:24;19.10;91.60
53878;DHT22;39790;53.144;6.424;2022-07-31T04:50:50;19.10;91.70
53878;DHT22;39790;53.144;6.424;2022-07-31T04:53:16;19.10;91.70
53878;DHT22;39790;53.144;6.424;2022-07-31T04:55:42;19.10;91.70
53878;DHT22;39790;53.144;6.424;2022-07-31T04:58:27;19.00;91.80
53878;DHT22;39790;53.144;6.424;2022-07-31T05:00:53;19.00;91.90
53878;DHT22;39790;53.144;6.424;2022-07-31T05:03:18;19.00;91.90
53878;DHT22;39790;53.144;6.424;2022-07-31T05:05:44;19.00;91.90
53878;DHT22;39790;53.144;6.424;2022-07-31T05:08:10;19.10;92.00
53878;DHT22;39790;53.144;6.424;2022-07-31T05:10:36;19.20;92.00
53878;DHT22;39790;53.144;6.424;2022-07-31T05:13:20;19.10;92.00
53878;DHT22;39790;53.144;6.424;2022-07-31T05:15:46;19.10;92.10
53878;DHT22;39790;53.144;6.424;2022-07-31T05:18:11;19.10;92.20
53878;DHT22;39790;53.144;6.424;2022-07-31T05:20:37;19.10;92.20
53878;DHT22;39790;53.144;6.424;2022-07-31T05:23:02;19.10;92.30
53878;DHT22;39790;53.144;6.424;2022-07-31T05:25:28;19.00;92.40
53878;DHT22;39790;53.144;6.424;2022-07-31T05:27:54;19.10;92.40
53878;DHT22;39790;53.144;6.424;2022-07-31T05:30:19;19.10;92.40
53878;DHT22;39790;53.144;6.424;2022-07-31T05:32:45;19.20;92.40
53878;DHT22;39790;53.144;6.424;2022-07-31T05:35:10;19.20;92.40
53878;DHT22;39790;53.144;6.424;2022-07-31T05:37:36;19.30;92.30
53878;DHT22;39790;53.144;6.424;2022-07-31T05:40:02;19.30;92.20
53878;DHT22;39790;53.144;6.424;2022-07-31T05:42:27;19.40;92.20
53878;DHT22;39790;53.144;6.424;2022-07-31T05:44:53;19.50;92.30
53878;DHT22;39790;53.144;6.424;2022-07-31T05:47:18;19.50;92.20
53878;DHT22;39790;53.144;6.424;2022-07-31T05:49:44;19.50;92.20
53878;DHT22;39790;53.144;6.424;2022-07-31T05:52:09;19.60;92.00
53878;DHT22;39790;53.144;6.424;2022-07-31T05:54:35;19.70;92.00
53878;DHT22;39790;53.144;6.424;2022-07-31T05:57:00;19.70;91.90
53878;DHT22;39790;53.144;6.424;2022-07-31T05:59:26;19.70;91.80
53878;DHT22;39790;53.144;6.424;2022-07-31T06:01:52;19.80;91.70
53878;DHT22;39790;53.144;6.424;2022-07-31T06:04:17;19.90;91.80
53878;DHT22;39790;53.144;6.424;2022-07-31T06:06:43;19.90;91.90
53878;DHT22;39790;53.144;6.424;2022-07-31T06:09:09;19.80;91.80
53878;DHT22;39790;53.144;6.424;2022-07-31T06:11:34;19.90;91.80
53878;DHT22;39790;53.144;6.424;2022-07-31T06:14:00;20.00;91.90
53878;DHT22;39790;53.144;6.424;2022-07-31T06:16:25;20.00;91.90
53878;DHT22;39790;53.144;6.424;2022-07-31T06:18:51;20.00;91.90
53878;DHT22;39790;53.144;6.424;2022-07-31T06:21:16;20.00;91.90
53878;DHT22;39790;53.144;6.424;2022-07-31T06:23:42;20.10;91.80
53878;DHT22;39790;53.144;6.424;2022-07-31T06:26:07;20.20;91.80
53878;DHT22;39790;53.144;6.424;2022-07-31T06:28:33;20.20;91.80
53878;DHT22;39790;53.144;6.424;2022-07-31T06:30:59;20.30;91.80
53878;DHT22;39790;53.144;6.424;2022-07-31T06:33:24;20.40;91.90
53878;DHT22;39790;53.144;6.424;2022-07-31T06:35:50;20.60;91.70
53878;DHT22;39790;53.144;6.424;2022-07-31T06:38:15;20.60;91.70
53878;DHT22;39790;53.144;6.424;2022-07-31T06:40:41;20.60;91.80
53878;DHT22;39790;53.144;6.424;2022-07-31T06:43:06;20.60;91.50
53878;DHT22;39790;53.144;6.424;2022-07-31T06:45:32;20.70;91.60
53878;DHT22;39790;53.144;6.424;2022-07-31T06:47:57;20.70;91.40
53878;DHT22;39790;53.144;6.424;2022-07-31T06:50:23;20.80;91.40
53878;DHT22;39790;53.144;6.424;2022-07-31T06:52:48;20.70;91.60
53878;DHT22;39790;53.144;6.424;2022-07-31T06:55:14;20.80;91.60
53878;DHT22;39790;53.144;6.424;2022-07-31T06:57:40;20.80;91.60
53878;DHT22;39790;53.144;6.424;2022-07-31T07:00:06;20.70;91.80
53878;DHT22;39790;53.144;6.424;2022-07-31T07:02:33;20.70;91.80
53878;DHT22;39790;53.144;6.424;2022-07-31T07:04:59;20.70;91.80
53878;DHT22;39790;53.144;6.424;2022-07-31T07:07:24;20.70;91.80
53878;DHT22;39790;53.144;6.424;2022-07-31T07:09:50;20.80;91.80
53878;DHT22;39790;53.144;6.424;2022-07-31T07:12:15;20.80;91.70
53878;DHT22;39790;53.144;6.424;2022-07-31T07:14:41;20.90;91.60
53878;DHT22;39790;53.144;6.424;2022-07-31T07:17:06;20.90;91.50
53878;DHT22;39790;53.144;6.424;2022-07-31T07:19:32;20.80;91.30
53878;DHT22;39790;53.144;6.424;2022-07-31T07:21:57;20.90;91.30
53878;DHT22;39790;53.144;6.424;2022-07-31T07:24:23;21.00;91.20
53878;DHT22;39790;53.144;6.424;2022-07-31T07:26:49;21.10;91.10
53878;DHT22;39790;53.144;6.424;2022-07-31T07:29:14;21.10;91.10
53878;DHT22;39790;53.144;6.424;2022-07-31T07:31:40;21.20;91.10
53878;DHT22;39790;53.144;6.424;2022-07-31T07:34:05;21.20;91.20
53878;DHT22;39790;53.144;6.424;2022-07-31T07:36:33;21.30;91.20
53878;DHT22;39790;53.144;6.424;2022-07-31T07:38:59;21.40;91.10
53878;DHT22;39790;53.144;6.424;2022-07-31T07:41:25;21.40;91.20
53878;DHT22;39790;53.144;6.424;2022-07-31T07:43:51;21.60;91.10
53878;DHT22;39790;53.144;6.424;2022-07-31T07:46:17;21.80;90.90
53878;DHT22;39790;53.144;6.424;2022-07-31T07:48:42;22.10;90.70
53878;DHT22;39790;53.144;6.424;2022-07-31T07:51:08;22.50;90.60
53878;DHT22;39790;53.144;6.424;2022-07-31T07:53:33;23.00;90.30
53878;DHT22;39790;53.144;6.424;2022-07-31T07:55:59;23.60;90.10
53878;DHT22;39790;53.144;6.424;2022-07-31T07:58:25;24.00;88.70
53878;DHT22;39790;53.144;6.424;2022-07-31T08:00:51;24.10;87.00
53878;DHT22;39790;53.144;6.424;2022-07-31T08:03:16;24.10;86.90
53878;DHT22;39790;53.144;6.424;2022-07-31T08:05:42;24.00;86.60
53878;DHT22;39790;53.144;6.424;2022-07-31T08:08:08;23.90;86.50
53878;DHT22;39790;53.144;6.424;2022-07-31T08:10:33;23.70;86.80
53878;DHT22;39790;53.144;6.424;2022-07-31T08:12:59;23.70;86.90
53878;DHT22;39790;53.144;6.424;2022-07-31T08:15:25;23.60;87.30
53878;DHT22;39790;53.144;6.424;2022-07-31T08:17:50;23.60;87.10
53878;DHT22;39790;53.144;6.424;2022-07-31T08:20:16;23.50;87.50
53878;DHT22;39790;53.144;6.424;2022-07-31T08:22:42;23.40;87.60
53878;DHT22;39790;53.144;6.424;2022-07-31T08:25:07;23.40;87.80
53878;DHT22;39790;53.144;6.424;2022-07-31T08:27:33;23.30;88.50
53878;DHT22;39790;53.144;6.424;2022-07-31T08:30:00;23.30;88.30
53878;DHT22;39790;53.144;6.424;2022-07-31T08:32:26;23.30;89.10
53878;DHT22;39790;53.144;6.424;2022-07-31T08:34:53;23.20;90.00
53878;DHT22;39790;53.144;6.424;2022-07-31T08:37:20;23.10;90.10
53878;DHT22;39790;53.144;6.424;2022-07-31T08:39:47;23.10;90.90
53878;DHT22;39790;53.144;6.424;2022-07-31T08:42:13;23.00;91.40
53878;DHT22;39790;53.144;6.424;2022-07-31T08:44:40;23.00;92.00
53878;DHT22;39790;53.144;6.424;2022-07-31T08:47:11;22.90;92.10
53878;DHT22;39790;53.144;6.424;2022-07-31T08:49:48;22.90;92.30
53878;DHT22;39790;53.144;6.424;2022-07-31T08:52:22;22.70;92.70
53878;DHT22;39790;53.144;6.424;2022-07-31T08:54:52;22.70;92.90
53878;DHT22;39790;53.144;6.424;2022-07-31T08:57:18;22.60;93.10
53878;DHT22;39790;53.144;6.424;2022-07-31T08:59:43;22.50;93.40
53878;DHT22;39790;53.144;6.424;2022-07-31T09:02:10;22.40;93.60
53878;DHT22;39790;53.144;6.424;2022-07-31T09:04:36;22.30;94.00
53878;DHT22;39790;53.144;6.424;2022-07-31T09:07:02;22.30;94.20
53878;DHT22;39790;53.144;6.424;2022-07-31T09:09:28;22.20;94.80
53878;DHT22;39790;53.144;6.424;2022-07-31T09:11:55;22.20;95.30
53878;DHT22;39790;53.144;6.424;2022-07-31T09:16:50;22.00;96.60
53878;DHT22;39790;53.144;6.424;2022-07-31T09:19:16;22.00;96.30
53878;DHT22;39790;53.144;6.424;2022-07-31T09:21:44;22.00;96.70
53878;DHT22;39790;53.144;6.424;2022-07-31T09:24:12;22.00;97.00
53878;DHT22;39790;53.144;6.424;2022-07-31T09:26:38;22.00;97.40
53878;DHT22;39790;53.144;6.424;2022-07-31T09:29:07;22.00;97.80
53878;DHT22;39790;53.144;6.424;2022-07-31T09:31:36;21.90;98.20
53878;DHT22;39790;53.144;6.424;2022-07-31T09:34:02;21.70;98.90
53878;DHT22;39790;53.144;6.424;2022-07-31T09:36:28;21.60;99.70
53878;DHT22;39790;53.144;6.424;2022-07-31T09:38:54;21.60;99.90
53878;DHT22;39790;53.144;6.424;2022-07-31T09:41:24;21.50;99.90
53878;DHT22;39790;53.144;6.424;2022-07-31T09:44:07;21.50;99.90
53878;DHT22;39790;53.144;6.424;2022-07-31T09:46:46;21.40;99.90
53878;DHT22;39790;53.144;6.424;2022-07-31T09:49:13;21.40;99.90
53878;DHT22;39790;53.144;6.424;2022-07-31T09:51:44;21.20;99.90
53878;DHT22;39790;53.144;6.424;2022-07-31T09:54:23;21.10;99.90
53878;DHT22;39790;53.144;6.424;2022-07-31T09:56:49;21.00;99.90
53878;DHT22;39790;53.144;6.424;2022-07-31T09:59:15;20.80;99.90
53878;DHT22;39790;53.144;6.424;2022-07-31T10:01:45;20.80;99.90
53878;DHT22;39790;53.144;6.424;2022-07-31T10:04:17;20.80;99.90
53878;DHT22;39790;53.144;6.424;2022-07-31T10:06:46;20.80;99.90
53878;DHT22;39790;53.144;6.424;2022-07-31T10:09:14;20.90;99.90
53878;DHT22;39790;53.144;6.424;2022-07-31T10:11:41;21.00;99.90
53878;DHT22;39790;53.144;6.424;2022-07-31T10:14:14;21.00;99.90
53878;DHT22;39790;53.144;6.424;2022-07-31T10:16:43;21.10;99.90
53878;DHT22;39790;53.144;6.424;2022-07-31T10:19:11;21.00;99.90
53878;DHT22;39790;53.144;6.424;2022-07-31T10:21:43;20.90;99.90
53878;DHT22;39790;53.144;6.424;2022-07-31T10:24:11;20.90;99.90
53878;DHT22;39790;53.144;6.424;2022-07-31T10:26:37;20.90;99.90
53878;DHT22;39790;53.144;6.424;2022-07-31T10:29:03;20.90;99.90
53878;DHT22;39790;53.144;6.424;2022-07-31T10:31:29;20.90;99.90
53878;DHT22;39790;53.144;6.424;2022-07-31T10:33:56;20.90;99.90
53878;DHT22;39790;53.144;6.424;2022-07-31T10:36:26;20.90;99.90
53878;DHT22;39790;53.144;6.424;2022-07-31T10:39:09;20.90;99.90
53878;DHT22;39790;53.144;6.424;2022-07-31T10:45:05;20.90;99.90
53878;DHT22;39790;53.144;6.424;2022-07-31T10:47:31;20.80;99.90
53878;DHT22;39790;53.144;6.424;2022-07-31T10:49:57;20.70;99.90
53878;DHT22;39790;53.144;6.424;2022-07-31T10:52:40;20.70;99.90
53878;DHT22;39790;53.144;6.424;2022-07-31T10:55:22;20.70;99.90
53878;DHT22;39790;53.144;6.424;2022-07-31T10:57:49;20.60;99.90
53878;DHT22;39790;53.144;6.424;2022-07-31T11:00:18;20.50;99.90
53878;DHT22;39790;53.144;6.424;2022-07-31T11:02:47;20.50;99.90
53878;DHT22;39790;53.144;6.424;2022-07-31T11:05:15;20.50;99.90
53878;DHT22;39790;53.144;6.424;2022-07-31T11:07:44;20.30;99.90
53878;DHT22;39790;53.144;6.424;2022-07-31T11:10:19;20.30;99.90
53878;DHT22;39790;53.144;6.424;2022-07-31T11:13:04;20.20;99.90
53878;DHT22;39790;53.144;6.424;2022-07-31T11:15:31;20.10;99.90
53878;DHT22;39790;53.144;6.424;2022-07-31T11:17:57;20.00;99.90
53878;DHT22;39790;53.144;6.424;2022-07-31T11:20:25;20.00;99.90
53878;DHT22;39790;53.144;6.424;2022-07-31T11:23:00;20.10;99.90
53878;DHT22;39790;53.144;6.424;2022-07-31T11:25:28;20.10;99.90
53878;DHT22;39790;53.144;6.424;2022-07-31T11:30:55;20.20;99.90
53878;DHT22;39790;53.144;6.424;2022-07-31T11:33:40;20.20;99.90
53878;DHT22;39790;53.144;6.424;2022-07-31T11:38:40;20.10;99.90
53878;DHT22;39790;53.144;6.424;2022-07-31T11:41:06;19.90;99.90
53878;DHT22;39790;53.144;6.424;2022-07-31T11:43:32;19.80;99.90
53878;DHT22;39790;53.144;6.424;2022-07-31T11:45:59;19.80;99.90
53878;DHT22;39790;53.144;6.424;2022-07-31T11:48:25;19.70;99.90
53878;DHT22;39790;53.144;6.424;2022-07-31T11:50:52;19.70;99.90
53878;DHT22;39790;53.144;6.424;2022-07-31T11:53:18;19.60;99.90
53878;DHT22;39790;53.144;6.424;2022-07-31T11:55:54;19.50;99.90
53878;DHT22;39790;53.144;6.424;2022-07-31T11:58:21;19.50;99.90
53878;DHT22;39790;53.144;6.424;2022-07-31T12:00:51;19.40;99.90
53878;DHT22;39790;53.144;6.424;2022-07-31T12:03:19;19.40;99.90
53878;DHT22;39790;53.144;6.424;2022-07-31T12:05:49;19.40;99.90
53878;DHT22;39790;53.144;6.424;2022-07-31T12:08:17;19.40;99.90
53878;DHT22;39790;53.144;6.424;2022-07-31T12:10:44;19.30;99.90
53878;DHT22;39790;53.144;6.424;2022-07-31T12:13:15;19.30;99.90
53878;DHT22;39790;53.144;6.424;2022-07-31T12:15:53;19.30;99.90
53878;DHT22;39790;53.144;6.424;2022-07-31T12:18:19;19.30;99.90
53878;DHT22;39790;53.144;6.424;2022-07-31T12:20:58;19.30;99.90
53878;DHT22;39790;53.144;6.424;2022-07-31T12:23:25;19.30;99.90
53878;DHT22;39790;53.144;6.424;2022-07-31T12:25:51;19.40;99.90
53878;DHT22;39790;53.144;6.424;2022-07-31T12:28:17;19.40;99.90
53878;DHT22;39790;53.144;6.424;2022-07-31T12:30:44;19.40;99.90
53878;DHT22;39790;53.144;6.424;2022-07-31T12:33:11;19.40;99.90
53878;DHT22;39790;53.144;6.424;2022-07-31T12:35:39;19.40;99.90
53878;DHT22;39790;53.144;6.424;2022-07-31T12:38:06;19.40;99.90
53878;DHT22;39790;53.144;6.424;2022-07-31T12:40:32;19.30;99.90
53878;DHT22;39790;53.144;6.424;2022-07-31T12:42:58;19.30;99.90
53878;DHT22;39790;53.144;6.424;2022-07-31T12:45:35;19.40;99.90
53878;DHT22;39790;53.144;6.424;2022-07-31T12:48:02;19.40;99.90
53878;DHT22;39790;53.144;6.424;2022-07-31T12:50:29;19.40;99.90
53878;DHT22;39790;53.144;6.424;2022-07-31T12:53:00;19.50;99.90
53878;DHT22;39790;53.144;6.424;2022-07-31T12:55:28;19.50;99.90
53878;DHT22;39790;53.144;6.424;2022-07-31T12:57:54;19.50;99.90
53878;DHT22;39790;53.144;6.424;2022-07-31T13:00:21;19.50;99.90
53878;DHT22;39790;53.144;6.424;2022-07-31T13:02:48;19.50;99.90
53878;DHT22;39790;53.144;6.424;2022-07-31T13:05:14;19.50;99.90
53878;DHT22;39790;53.144;6.424;2022-07-31T13:07:40;19.50;99.90
53878;DHT22;39790;53.144;6.424;2022-07-31T13:10:06;19.40;99.90
53878;DHT22;39790;53.144;6.424;2022-07-31T13:12:32;19.40;99.90
53878;DHT22;39790;53.144;6.424;2022-07-31T13:15:01;19.40;99.90
53878;DHT22;39790;53.144;6.424;2022-07-31T13:17:27;19.40;99.90
53878;DHT22;39790;53.144;6.424;2022-07-31T13:19:54;19.50;99.90
53878;DHT22;39790;53.144;6.424;2022-07-31T13:22:19;19.50;99.90
53878;DHT22;39790;53.144;6.424;2022-07-31T13:24:45;19.60;99.90
53878;DHT22;39790;53.144;6.424;2022-07-31T13:27:10;19.60;99.90
53878;DHT22;39790;53.144;6.424;2022-07-31T13:29:38;19.70;99.90
53878;DHT22;39790;53.144;6.424;2022-07-31T13:32:04;19.70;99.90
53878;DHT22;39790;53.144;6.424;2022-07-31T13:34:30;19.80;99.90
53878;DHT22;39790;53.144;6.424;2022-07-31T13:36:56;19.80;99.90
53878;DHT22;39790;53.144;6.424;2022-07-31T13:39:21;19.90;99.90
53878;DHT22;39790;53.144;6.424;2022-07-31T13:41:47;19.90;99.90
53878;DHT22;39790;53.144;6.424;2022-07-31T13:44:15;19.90;99.90
53878;DHT22;39790;53.144;6.424;2022-07-31T13:46:41;20.00;99.90
53878;DHT22;39790;53.144;6.424;2022-07-31T13:49:06;20.00;99.90
53878;DHT22;39790;53.144;6.424;2022-07-31T13:51:36;20.20;99.90
53878;DHT22;39790;53.144;6.424;2022-07-31T13:54:02;20.30;99.90
53878;DHT22;39790;53.144;6.424;2022-07-31T13:56:28;20.40;99.90
53878;DHT22;39790;53.144;6.424;2022-07-31T13:58:54;20.50;99.90
53878;DHT22;39790;53.144;6.424;2022-07-31T14:01:19;20.50;99.90
53878;DHT22;39790;53.144;6.424;2022-07-31T14:03:45;20.60;99.90
53878;DHT22;39790;53.144;6.424;2022-07-31T14:06:11;20.60;99.90
53878;DHT22;39790;53.144;6.424;2022-07-31T14:08:36;20.60;99.90
53878;DHT22;39790;53.144;6.424;2022-07-31T14:11:02;20.70;99.90
53878;DHT22;39790;53.144;6.424;2022-07-31T14:13:28;20.70;99.90
53878;DHT22;39790;53.144;6.424;2022-07-31T14:15:54;20.80;99.90
53878;DHT22;39790;53.144;6.424;2022-07-31T14:18:19;20.80;99.90
53878;DHT22;39790;53.144;6.424;2022-07-31T14:20:46;20.80;99.90
53878;DHT22;39790;53.144;6.424;2022-07-31T14:23:12;20.80;99.90
53878;DHT22;39790;53.144;6.424;2022-07-31T14:25:38;20.80;99.90
53878;DHT22;39790;53.144;6.424;2022-07-31T14:28:05;20.80;99.90
53878;DHT22;39790;53.144;6.424;2022-07-31T14:30:31;20.90;99.90
53878;DHT22;39790;53.144;6.424;2022-07-31T14:32:58;20.90;99.90
53878;DHT22;39790;53.144;6.424;2022-07-31T14:35:26;21.00;99.90
53878;DHT22;39790;53.144;6.424;2022-07-31T14:37:52;21.00;99.90
53878;DHT22;39790;53.144;6.424;2022-07-31T14:40:18;21.10;99.90
53878;DHT22;39790;53.144;6.424;2022-07-31T14:42:43;21.20;99.90
53878;DHT22;39790;53.144;6.424;2022-07-31T14:45:10;21.10;99.90
53878;DHT22;39790;53.144;6.424;2022-07-31T14:47:36;21.10;99.90
53878;DHT22;39790;53.144;6.424;2022-07-31T14:50:03;21.00;99.90
53878;DHT22;39790;53.144;6.424;2022-07-31T14:52:30;20.90;99.90
53878;DHT22;39790;53.144;6.424;2022-07-31T14:54:57;20.90;99.90
53878;DHT22;39790;53.144;6.424;2022-07-31T14:57:23;20.80;99.90
53878;DHT22;39790;53.144;6.424;2022-07-31T14:59:49;20.80;99.90
53878;DHT22;39790;53.144;6.424;2022-07-31T15:02:15;20.80;99.90
53878;DHT22;39790;53.144;6.424;2022-07-31T15:04:40;20.90;99.90
53878;DHT22;39790;53.144;6.424;2022-07-31T15:07:06;20.90;99.90
53878;DHT22;39790;53.144;6.424;2022-07-31T15:09:31;20.90;99.90
53878;DHT22;39790;53.144;6.424;2022-07-31T15:11:57;20.90;99.90
53878;DHT22;39790;53.144;6.424;2022-07-31T15:14:23;20.80;99.90
53878;DHT22;39790;53.144;6.424;2022-07-31T15:16:49;20.80;99.90
53878;DHT22;39790;53.144;6.424;2022-07-31T15:19:15;20.80;99.90
53878;DHT22;39790;53.144;6.424;2022-07-31T15:21:43;20.70;99.90
53878;DHT22;39790;53.144;6.424;2022-07-31T15:24:09;20.70;99.90
53878;DHT22;39790;53.144;6.424;2022-07-31T15:26:36;20.70;99.90
53878;DHT22;39790;53.144;6.424;2022-07-31T15:29:02;20.70;99.90
53878;DHT22;39790;53.144;6.424;2022-07-31T15:31:27;20.80;99.90
53878;DHT22;39790;53.144;6.424;2022-07-31T15:33:53;20.80;99.90
53878;DHT22;39790;53.144;6.424;2022-07-31T15:36:25;20.90;99.90
53878;DHT22;39790;53.144;6.424;2022-07-31T15:38:51;20.90;99.90
53878;DHT22;39790;53.144;6.424;2022-07-31T15:41:16;21.00;99.90
53878;DHT22;39790;53.144;6.424;2022-07-31T15:43:42;21.00;99.90